sensor_id;sensor_type;location;lat;lon;timestamp;temperature;humidity
74811;DHT22;63340;48.404;-4.506;2022-11-15T07:58:20;16.17;84.34
74811;DHT22;63340;48.404;-4.506;2022-11-15T08:08:23;16.49;74.35
74811;DHT22;63340;48.404;-4.506;2022-11-15T08:10:49;16.31;74.67
74811;DHT22;63340;48.404;-4.506;2022-11-15T08:13:14;16.14;74.98
74811;DHT22;63340;48.404;-4.506;2022-11-15T08:15:41;16.01;74.60
74811;DHT22;63340;48.404;-4.506;2022-11-15T08:18:11;15.86;75.03
74811;DHT22;63340;48.404;-4.506;2022-11-15T08:20:37;15.76;75.01
74811;DHT22;63340;48.404;-4.506;2022-11-15T08:23:03;15.66;75.26
74811;DHT22;63340;48.404;-4.506;2022-11-15T08:25:31;15.57;75.05
74811;DHT22;63340;48.404;-4.506;2022-11-15T08:27:59;15.52;75.06
74811;DHT22;63340;48.404;-4.506;2022-11-15T08:30:24;15.42;75.37
74811;DHT22;63340;48.404;-4.506;2022-11-15T08:32:51;15.36;75.05
74811;DHT22;63340;48.404;-4.506;2022-11-15T08:35:18;15.28;75.04
74811;DHT22;63340;48.404;-4.506;2022-11-15T08:37:43;15.29;75.21
74811;DHT22;63340;48.404;-4.506;2022-11-15T08:40:09;15.32;75.75
74811;DHT22;63340;48.404;-4.506;2022-11-15T08:42:35;15.35;75.42
74811;DHT22;63340;48.404;-4.506;2022-11-15T08:45:00;15.35;75.05
74811;DHT22;63340;48.404;-4.506;2022-11-15T08:47:26;15.40;75.36
74811;DHT22;63340;48.404;-4.506;2022-11-15T08:49:52;15.43;74.67
74811;DHT22;63340;48.404;-4.506;2022-11-15T08:52:17;15.45;74.77
74811;DHT22;63340;48.404;-4.506;2022-11-15T08:54:42;15.40;74.99
74811;DHT22;63340;48.404;-4.506;2022-11-15T08:57:08;15.39;74.72
74811;DHT22;63340;48.404;-4.506;2022-11-15T08:59:35;15.39;75.30
74811;DHT22;63340;48.404;-4.506;2022-11-15T09:02:00;15.45;75.24
74811;DHT22;63340;48.404;-4.506;2022-11-15T09:04:26;15.38;74.76
74811;DHT22;63340;48.404;-4.506;2022-11-15T09:06:51;15.38;74.80
74811;DHT22;63340;48.404;-4.506;2022-11-15T09:09:17;15.38;74.86
74811;DHT22;63340;48.404;-4.506;2022-11-15T09:11:42;15.36;74.86
74811;DHT22;63340;48.404;-4.506;2022-11-15T09:14:13;15.38;74.95
74811;DHT22;63340;48.404;-4.506;2022-11-15T09:16:38;15.39;75.14
74811;DHT22;63340;48.404;-4.506;2022-11-15T09:19:04;15.40;74.75
74811;DHT22;63340;48.404;-4.506;2022-11-15T09:21:30;15.52;74.91
74811;DHT22;63340;48.404;-4.506;2022-11-15T09:23:55;15.60;73.93
74811;DHT22;63340;48.404;-4.506;2022-11-15T09:26:21;15.62;73.82
74811;DHT22;63340;48.404;-4.506;2022-11-15T09:28:46;15.62;72.97
74811;DHT22;63340;48.404;-4.506;2022-11-15T09:31:12;15.60;71.82
74811;DHT22;63340;48.404;-4.506;2022-11-15T09:33:42;15.53;72.21
74811;DHT22;63340;48.404;-4.506;2022-11-15T09:36:09;15.53;71.98
74811;DHT22;63340;48.404;-4.506;2022-11-15T09:38:34;15.54;72.64
74811;DHT22;63340;48.404;-4.506;2022-11-15T09:49:04;15.89;69.61
74811;DHT22;63340;48.404;-4.506;2022-11-15T09:54:03;15.91;68.64
74811;DHT22;63340;48.404;-4.506;2022-11-15T09:56:31;15.93;68.73
74811;DHT22;63340;48.404;-4.506;2022-11-15T10:02:03;15.91;69.34
74811;DHT22;63340;48.404;-4.506;2022-11-15T10:04:34;15.94;70.19
74811;DHT22;63340;48.404;-4.506;2022-11-15T10:12:42;15.87;70.53
74811;DHT22;63340;48.404;-4.506;2022-11-15T10:15:14;15.83;69.19
74811;DHT22;63340;48.404;-4.506;2022-11-15T10:20:24;15.97;67.65
74811;DHT22;63340;48.404;-4.506;2022-11-15T10:22:53;16.01;67.89
74811;DHT22;63340;48.404;-4.506;2022-11-15T10:25:23;16.12;67.71
74811;DHT22;63340;48.404;-4.506;2022-11-15T10:28:05;16.14;67.10
74811;DHT22;63340;48.404;-4.506;2022-11-15T10:30:40;16.24;66.50
74811;DHT22;63340;48.404;-4.506;2022-11-15T10:41:19;16.45;67.30
74811;DHT22;63340;48.404;-4.506;2022-11-15T10:46:40;16.60;67.85
74811;DHT22;63340;48.404;-4.506;2022-11-15T10:49:27;16.41;68.30
74811;DHT22;63340;48.404;-4.506;2022-11-15T10:52:16;16.21;69.14
74811;DHT22;63340;48.404;-4.506;2022-11-15T10:54:51;16.10;70.59
74811;DHT22;63340;48.404;-4.506;2022-11-15T10:57:23;15.97;70.65
74811;DHT22;63340;48.404;-4.506;2022-11-15T10:59:56;15.91;71.17
74811;DHT22;63340;48.404;-4.506;2022-11-15T11:04:55;15.70;73.56
74811;DHT22;63340;48.404;-4.506;2022-11-15T11:07:33;15.49;73.97
74811;DHT22;63340;48.404;-4.506;2022-11-15T11:10:02;15.38;73.01
74811;DHT22;63340;48.404;-4.506;2022-11-15T11:12:32;15.28;74.12
74811;DHT22;63340;48.404;-4.506;2022-11-15T11:15:00;15.09;75.22
74811;DHT22;63340;48.404;-4.506;2022-11-15T11:37:30;14.55;72.51
74811;DHT22;63340;48.404;-4.506;2022-11-15T11:49:36;14.32;69.84
74811;DHT22;63340;48.404;-4.506;2022-11-15T12:07:26;13.81;71.46
74811;DHT22;63340;48.404;-4.506;2022-11-15T12:29:57;14.53;66.94
74811;DHT22;63340;48.404;-4.506;2022-11-15T12:32:36;14.50;67.10
74811;DHT22;63340;48.404;-4.506;2022-11-15T12:35:05;14.66;66.30
74811;DHT22;63340;48.404;-4.506;2022-11-15T12:42:36;14.73;63.27
74811;DHT22;63340;48.404;-4.506;2022-11-15T12:45:34;14.78;61.60
74811;DHT22;63340;48.404;-4.506;2022-11-15T12:53:32;14.74;62.17
74811;DHT22;63340;48.404;-4.506;2022-11-15T12:56:21;14.73;61.82
74811;DHT22;63340;48.404;-4.506;2022-11-15T12:58:59;14.70;61.62
74811;DHT22;63340;48.404;-4.506;2022-11-15T13:06:49;14.95;61.15
74811;DHT22;63340;48.404;-4.506;2022-11-15T13:19:54;15.04;59.40
74811;DHT22;63340;48.404;-4.506;2022-11-15T13:22:24;14.88;59.05
74811;DHT22;63340;48.404;-4.506;2022-11-15T13:30:35;14.88;59.30
74811;DHT22;63340;48.404;-4.506;2022-11-15T13:33:08;14.92;60.42
74811;DHT22;63340;48.404;-4.506;2022-11-15T13:35:39;14.95;60.31
74811;DHT22;63340;48.404;-4.506;2022-11-15T13:38:05;14.94;58.76
74811;DHT22;63340;48.404;-4.506;2022-11-15T13:40:35;14.85;58.95
74811;DHT22;63340;48.404;-4.506;2022-11-15T13:46:15;14.78;59.92
74811;DHT22;63340;48.404;-4.506;2022-11-15T13:48:55;14.85;60.18
74811;DHT22;63340;48.404;-4.506;2022-11-15T13:51:34;14.78;60.02
74811;DHT22;63340;48.404;-4.506;2022-11-15T13:57:51;14.98;60.02
74811;DHT22;63340;48.404;-4.506;2022-11-15T14:03:19;14.89;59.74
74811;DHT22;63340;48.404;-4.506;2022-11-15T14:06:42;14.78;59.11
74811;DHT22;63340;48.404;-4.506;2022-11-15T14:10:07;14.80;59.29
74811;DHT22;63340;48.404;-4.506;2022-11-15T14:12:50;14.73;59.89
74811;DHT22;63340;48.404;-4.506;2022-11-15T14:15:36;14.91;60.96
74811;DHT22;63340;48.404;-4.506;2022-11-15T14:18:03;14.97;61.08
74811;DHT22;63340;48.404;-4.506;2022-11-15T14:20:34;14.99;61.20
74811;DHT22;63340;48.404;-4.506;2022-11-15T14:23:05;14.91;60.79
74811;DHT22;63340;48.404;-4.506;2022-11-15T14:25:57;14.92;61.19
74811;DHT22;63340;48.404;-4.506;2022-11-15T14:28:31;15.08;61.81
74811;DHT22;63340;48.404;-4.506;2022-11-15T14:30:59;15.15;61.46
74811;DHT22;63340;48.404;-4.506;2022-11-15T14:33:28;15.19;61.36
74811;DHT22;63340;48.404;-4.506;2022-11-15T14:35:56;15.18;60.76
74811;DHT22;63340;48.404;-4.506;2022-11-15T14:38:23;15.14;60.75
74811;DHT22;63340;48.404;-4.506;2022-11-15T14:40:49;15.21;61.30
74811;DHT22;63340;48.404;-4.506;2022-11-15T14:43:14;15.21;61.40
74811;DHT22;63340;48.404;-4.506;2022-11-15T14:45:40;15.18;61.33
74811;DHT22;63340;48.404;-4.506;2022-11-15T14:48:06;15.25;61.65
74811;DHT22;63340;48.404;-4.506;2022-11-15T14:50:33;15.15;61.21
74811;DHT22;63340;48.404;-4.506;2022-11-15T14:52:58;15.21;61.96
74811;DHT22;63340;48.404;-4.506;2022-11-15T14:55:26;15.18;60.80
74811;DHT22;63340;48.404;-4.506;2022-11-15T14:57:53;15.16;60.87
74811;DHT22;63340;48.404;-4.506;2022-11-15T15:00:19;15.16;60.56
74811;DHT22;63340;48.404;-4.506;2022-11-15T15:02:45;15.11;60.05
74811;DHT22;63340;48.404;-4.506;2022-11-15T15:07:45;15.04;61.06
74811;DHT22;63340;48.404;-4.506;2022-11-15T15:10:11;15.04;60.63
74811;DHT22;63340;48.404;-4.506;2022-11-15T15:12:37;15.01;60.76
74811;DHT22;63340;48.404;-4.506;2022-11-15T15:15:03;15.04;60.00
74811;DHT22;63340;48.404;-4.506;2022-11-15T15:17:29;15.01;59.72
74811;DHT22;63340;48.404;-4.506;2022-11-15T15:19:54;14.97;59.86
74811;DHT22;63340;48.404;-4.506;2022-11-15T15:22:20;14.83;60.24
74811;DHT22;63340;48.404;-4.506;2022-11-15T15:24:50;14.80;60.94
74811;DHT22;63340;48.404;-4.506;2022-11-15T15:27:16;14.78;61.05
74811;DHT22;63340;48.404;-4.506;2022-11-15T15:29:42;14.78;61.42
74811;DHT22;63340;48.404;-4.506;2022-11-15T15:32:08;14.76;61.67
74811;DHT22;63340;48.404;-4.506;2022-11-15T15:34:34;14.78;61.87
74811;DHT22;63340;48.404;-4.506;2022-11-15T15:39:53;14.83;61.23
74811;DHT22;63340;48.404;-4.506;2022-11-15T15:42:20;14.85;60.96
74811;DHT22;63340;48.404;-4.506;2022-11-15T15:44:50;14.78;61.18
74811;DHT22;63340;48.404;-4.506;2022-11-15T15:47:20;14.81;61.74
74811;DHT22;63340;48.404;-4.506;2022-11-15T15:49:47;14.85;62.27
74811;DHT22;63340;48.404;-4.506;2022-11-15T15:52:17;14.89;62.30
74811;DHT22;63340;48.404;-4.506;2022-11-15T15:54:43;14.87;61.10
74811;DHT22;63340;48.404;-4.506;2022-11-15T15:57:20;14.87;59.94
74811;DHT22;63340;48.404;-4.506;2022-11-15T15:59:52;14.78;59.81
74811;DHT22;63340;48.404;-4.506;2022-11-15T16:02:20;14.85;60.16
74811;DHT22;63340;48.404;-4.506;2022-11-15T16:04:45;14.84;60.15
74811;DHT22;63340;48.404;-4.506;2022-11-15T16:07:21;14.73;59.38
74811;DHT22;63340;48.404;-4.506;2022-11-15T16:09:49;14.78;60.28
74811;DHT22;63340;48.404;-4.506;2022-11-15T16:12:34;14.78;60.21
74811;DHT22;63340;48.404;-4.506;2022-11-15T16:15:00;14.76;59.99
74811;DHT22;63340;48.404;-4.506;2022-11-15T16:17:31;14.71;60.06
74811;DHT22;63340;48.404;-4.506;2022-11-15T16:19:57;14.68;60.57
74811;DHT22;63340;48.404;-4.506;2022-11-15T16:22:22;14.60;60.88
74811;DHT22;63340;48.404;-4.506;2022-11-15T16:24:47;14.64;61.74
74811;DHT22;63340;48.404;-4.506;2022-11-15T16:27:17;14.47;62.98
74811;DHT22;63340;48.404;-4.506;2022-11-15T16:29:43;14.41;64.28
74811;DHT22;63340;48.404;-4.506;2022-11-15T16:32:09;14.37;65.45
74811;DHT22;63340;48.404;-4.506;2022-11-15T16:34:34;14.37;66.66
74811;DHT22;63340;48.404;-4.506;2022-11-15T16:37:00;14.36;67.20
74811;DHT22;63340;48.404;-4.506;2022-11-15T16:39:25;14.37;66.88
74811;DHT22;63340;48.404;-4.506;2022-11-15T16:41:53;14.40;67.33
74811;DHT22;63340;48.404;-4.506;2022-11-15T16:44:18;14.26;67.40
74811;DHT22;63340;48.404;-4.506;2022-11-15T16:46:44;14.26;67.38
74811;DHT22;63340;48.404;-4.506;2022-11-15T16:49:16;13.99;66.88
74811;DHT22;63340;48.404;-4.506;2022-11-15T16:51:44;13.79;66.99
74811;DHT22;63340;48.404;-4.506;2022-11-15T16:54:10;13.62;67.59
74811;DHT22;63340;48.404;-4.506;2022-11-15T16:56:37;13.48;68.53
74811;DHT22;63340;48.404;-4.506;2022-11-15T16:59:03;13.46;69.84
74811;DHT22;63340;48.404;-4.506;2022-11-15T17:01:31;13.30;70.88
74811;DHT22;63340;48.404;-4.506;2022-11-15T17:03:56;13.28;70.07
74811;DHT22;63340;48.404;-4.506;2022-11-15T17:06:23;13.19;70.95
74811;DHT22;63340;48.404;-4.506;2022-11-15T17:08:48;13.22;70.33
74811;DHT22;63340;48.404;-4.506;2022-11-15T17:11:16;13.19;69.91
74811;DHT22;63340;48.404;-4.506;2022-11-15T17:13:42;13.26;69.75
74811;DHT22;63340;48.404;-4.506;2022-11-15T17:16:10;13.26;69.38
74811;DHT22;63340;48.404;-4.506;2022-11-15T17:18:36;13.33;69.41
74811;DHT22;63340;48.404;-4.506;2022-11-15T17:21:22;13.34;69.59
74811;DHT22;63340;48.404;-4.506;2022-11-15T17:23:48;13.34;69.91
74811;DHT22;63340;48.404;-4.506;2022-11-15T17:26:17;13.40;69.61
74811;DHT22;63340;48.404;-4.506;2022-11-15T17:28:42;13.37;70.00
74811;DHT22;63340;48.404;-4.506;2022-11-15T17:31:09;13.37;70.29
74811;DHT22;63340;48.404;-4.506;2022-11-15T17:33:36;13.33;70.64
74811;DHT22;63340;48.404;-4.506;2022-11-15T17:36:05;13.36;70.35
74811;DHT22;63340;48.404;-4.506;2022-11-15T17:38:31;13.34;70.42
74811;DHT22;63340;48.404;-4.506;2022-11-15T17:43:31;13.30;70.04
74811;DHT22;63340;48.404;-4.506;2022-11-15T17:45:57;13.32;69.81
74811;DHT22;63340;48.404;-4.506;2022-11-15T17:48:23;13.34;69.81
74811;DHT22;63340;48.404;-4.506;2022-11-15T17:50:59;13.24;69.57
74811;DHT22;63340;48.404;-4.506;2022-11-15T17:53:26;13.07;69.19
74811;DHT22;63340;48.404;-4.506;2022-11-15T17:55:52;13.16;69.21
74811;DHT22;63340;48.404;-4.506;2022-11-15T17:58:18;13.19;68.93
74811;DHT22;63340;48.404;-4.506;2022-11-15T18:00:47;13.13;68.94
74811;DHT22;63340;48.404;-4.506;2022-11-15T18:03:13;13.10;68.32
74811;DHT22;63340;48.404;-4.506;2022-11-15T18:05:40;13.09;68.28
74811;DHT22;63340;48.404;-4.506;2022-11-15T18:08:11;13.19;68.44
74811;DHT22;63340;48.404;-4.506;2022-11-15T18:10:41;13.27;68.21
74811;DHT22;63340;48.404;-4.506;2022-11-15T18:13:06;13.37;67.73
74811;DHT22;63340;48.404;-4.506;2022-11-15T18:15:31;13.43;67.44
74811;DHT22;63340;48.404;-4.506;2022-11-15T18:17:57;13.48;67.27
74811;DHT22;63340;48.404;-4.506;2022-11-15T18:20:22;13.41;66.94
74811;DHT22;63340;48.404;-4.506;2022-11-15T18:22:48;13.46;66.62
74811;DHT22;63340;48.404;-4.506;2022-11-15T18:25:16;13.50;66.25
74811;DHT22;63340;48.404;-4.506;2022-11-15T18:27:41;13.43;66.02
74811;DHT22;63340;48.404;-4.506;2022-11-15T18:30:07;13.47;66.37
74811;DHT22;63340;48.404;-4.506;2022-11-15T18:32:33;13.32;70.03
74811;DHT22;63340;48.404;-4.506;2022-11-15T18:34:58;13.03;68.14
74811;DHT22;63340;48.404;-4.506;2022-11-15T18:37:24;12.79;68.23
74811;DHT22;63340;48.404;-4.506;2022-11-15T18:39:49;12.65;69.01
74811;DHT22;63340;48.404;-4.506;2022-11-15T18:42:15;12.58;69.71
74811;DHT22;63340;48.404;-4.506;2022-11-15T18:44:40;12.59;70.09
74811;DHT22;63340;48.404;-4.506;2022-11-15T18:47:05;12.58;70.26
74811;DHT22;63340;48.404;-4.506;2022-11-15T18:49:31;12.68;69.80
74811;DHT22;63340;48.404;-4.506;2022-11-15T18:51:56;12.78;70.05
74811;DHT22;63340;48.404;-4.506;2022-11-15T18:54:22;12.82;70.47
74811;DHT22;63340;48.404;-4.506;2022-11-15T18:56:47;12.91;71.03
74811;DHT22;63340;48.404;-4.506;2022-11-15T18:59:13;12.96;71.21
74811;DHT22;63340;48.404;-4.506;2022-11-15T19:01:44;12.97;70.87
74811;DHT22;63340;48.404;-4.506;2022-11-15T19:04:15;12.95;70.67
74811;DHT22;63340;48.404;-4.506;2022-11-15T19:06:44;12.93;70.12
74811;DHT22;63340;48.404;-4.506;2022-11-15T19:09:11;13.00;69.56
74811;DHT22;63340;48.404;-4.506;2022-11-15T19:11:39;12.97;69.30
74811;DHT22;63340;48.404;-4.506;2022-11-15T19:14:08;13.02;69.02
74811;DHT22;63340;48.404;-4.506;2022-11-15T19:16:40;13.10;69.23
74811;DHT22;63340;48.404;-4.506;2022-11-15T19:19:09;13.14;69.01
74811;DHT22;63340;48.404;-4.506;2022-11-15T19:21:34;13.09;68.96
74811;DHT22;63340;48.404;-4.506;2022-11-15T19:24:00;13.10;69.05
74811;DHT22;63340;48.404;-4.506;2022-11-15T19:26:27;13.03;69.05
74811;DHT22;63340;48.404;-4.506;2022-11-15T19:28:54;13.10;69.46
74811;DHT22;63340;48.404;-4.506;2022-11-15T19:31:21;13.06;69.81
74811;DHT22;63340;48.404;-4.506;2022-11-15T19:33:48;13.13;70.39
74811;DHT22;63340;48.404;-4.506;2022-11-15T19:36:20;13.12;70.49
74811;DHT22;63340;48.404;-4.506;2022-11-15T19:38:45;13.16;70.30
74811;DHT22;63340;48.404;-4.506;2022-11-15T19:41:16;13.20;70.54
74811;DHT22;63340;48.404;-4.506;2022-11-15T19:43:42;13.24;70.46
74811;DHT22;63340;48.404;-4.506;2022-11-15T19:46:11;13.22;70.11
74811;DHT22;63340;48.404;-4.506;2022-11-15T19:48:37;13.26;69.98
74811;DHT22;63340;48.404;-4.506;2022-11-15T19:51:07;13.22;69.77
74811;DHT22;63340;48.404;-4.506;2022-11-15T19:53:34;13.17;69.89
74811;DHT22;63340;48.404;-4.506;2022-11-15T19:56:02;13.19;69.81
74811;DHT22;63340;48.404;-4.506;2022-11-15T19:58:28;13.23;68.48
74811;DHT22;63340;48.404;-4.506;2022-11-15T20:01:07;13.06;65.67
74811;DHT22;63340;48.404;-4.506;2022-11-15T20:03:34;13.06;66.31
74811;DHT22;63340;48.404;-4.506;2022-11-15T20:06:07;13.07;66.01
74811;DHT22;63340;48.404;-4.506;2022-11-15T20:08:33;13.05;65.81
74811;DHT22;63340;48.404;-4.506;2022-11-15T20:11:00;13.10;66.02
74811;DHT22;63340;48.404;-4.506;2022-11-15T20:13:26;13.12;65.16
74811;DHT22;63340;48.404;-4.506;2022-11-15T20:15:52;13.00;64.91
74811;DHT22;63340;48.404;-4.506;2022-11-15T20:18:18;13.06;64.84
74811;DHT22;63340;48.404;-4.506;2022-11-15T20:20:48;13.00;65.59
74811;DHT22;63340;48.404;-4.506;2022-11-15T20:23:14;12.99;66.48
74811;DHT22;63340;48.404;-4.506;2022-11-15T20:25:45;12.97;67.23
74811;DHT22;63340;48.404;-4.506;2022-11-15T20:28:16;13.03;67.76
74811;DHT22;63340;48.404;-4.506;2022-11-15T20:30:43;13.12;68.06
74811;DHT22;63340;48.404;-4.506;2022-11-15T20:33:09;13.17;68.15
74811;DHT22;63340;48.404;-4.506;2022-11-15T20:35:35;13.26;68.26
74811;DHT22;63340;48.404;-4.506;2022-11-15T20:38:00;13.28;69.41
74811;DHT22;63340;48.404;-4.506;2022-11-15T20:40:26;13.30;69.62
74811;DHT22;63340;48.404;-4.506;2022-11-15T20:42:52;13.28;69.94
74811;DHT22;63340;48.404;-4.506;2022-11-15T20:45:17;13.30;69.76
74811;DHT22;63340;48.404;-4.506;2022-11-15T20:47:43;13.40;69.75
74811;DHT22;63340;48.404;-4.506;2022-11-15T20:50:09;13.40;68.65
74811;DHT22;63340;48.404;-4.506;2022-11-15T20:52:34;13.37;65.85
74811;DHT22;63340;48.404;-4.506;2022-11-15T20:55:00;13.34;66.88
74811;DHT22;63340;48.404;-4.506;2022-11-15T20:57:26;13.32;66.60
74811;DHT22;63340;48.404;-4.506;2022-11-15T20:59:52;13.33;67.26
74811;DHT22;63340;48.404;-4.506;2022-11-15T21:02:17;13.39;67.35
74811;DHT22;63340;48.404;-4.506;2022-11-15T21:04:42;13.44;67.61
74811;DHT22;63340;48.404;-4.506;2022-11-15T21:07:08;13.36;67.98
74811;DHT22;63340;48.404;-4.506;2022-11-15T21:09:33;13.40;68.15
74811;DHT22;63340;48.404;-4.506;2022-11-15T21:12:17;13.26;68.42
74811;DHT22;63340;48.404;-4.506;2022-11-15T21:14:46;13.24;68.70
74811;DHT22;63340;48.404;-4.506;2022-11-15T21:17:16;13.30;68.51
74811;DHT22;63340;48.404;-4.506;2022-11-15T21:19:42;13.34;68.08
74811;DHT22;63340;48.404;-4.506;2022-11-15T21:22:09;13.34;67.31
74811;DHT22;63340;48.404;-4.506;2022-11-15T21:24:36;13.41;67.48
74811;DHT22;63340;48.404;-4.506;2022-11-15T21:27:02;13.40;66.91
74811;DHT22;63340;48.404;-4.506;2022-11-15T21:29:32;13.44;67.05
74811;DHT22;63340;48.404;-4.506;2022-11-15T21:32:06;13.43;66.93
74811;DHT22;63340;48.404;-4.506;2022-11-15T21:34:33;13.43;67.14
74811;DHT22;63340;48.404;-4.506;2022-11-15T21:36:58;13.53;67.31
74811;DHT22;63340;48.404;-4.506;2022-11-15T21:39:24;13.60;67.08
74811;DHT22;63340;48.404;-4.506;2022-11-15T21:41:49;13.67;66.56
74811;DHT22;63340;48.404;-4.506;2022-11-15T21:44:15;13.72;66.25
74811;DHT22;63340;48.404;-4.506;2022-11-15T21:46:41;13.70;66.05
74811;DHT22;63340;48.404;-4.506;2022-11-15T21:49:08;13.41;65.93
74811;DHT22;63340;48.404;-4.506;2022-11-15T21:51:33;13.44;66.32
74811;DHT22;63340;48.404;-4.506;2022-11-15T21:53:59;13.27;65.58
74811;DHT22;63340;48.404;-4.506;2022-11-15T21:56:26;13.23;66.38
74811;DHT22;63340;48.404;-4.506;2022-11-15T21:58:53;13.24;66.60
74811;DHT22;63340;48.404;-4.506;2022-11-15T22:01:19;13.17;66.98
74811;DHT22;63340;48.404;-4.506;2022-11-15T22:04:03;13.10;67.40
74811;DHT22;63340;48.404;-4.506;2022-11-15T22:06:31;13.10;67.23
74811;DHT22;63340;48.404;-4.506;2022-11-15T22:08:56;13.03;67.09
74811;DHT22;63340;48.404;-4.506;2022-11-15T22:11:22;13.03;67.50
74811;DHT22;63340;48.404;-4.506;2022-11-15T22:13:47;13.07;67.08
74811;DHT22;63340;48.404;-4.506;2022-11-15T22:16:12;13.09;67.03
74811;DHT22;63340;48.404;-4.506;2022-11-15T22:18:38;13.14;66.54
74811;DHT22;63340;48.404;-4.506;2022-11-15T22:21:09;13.22;66.56
74811;DHT22;63340;48.404;-4.506;2022-11-15T22:23:35;13.26;66.12
74811;DHT22;63340;48.404;-4.506;2022-11-15T22:26:01;13.32;66.08
74811;DHT22;63340;48.404;-4.506;2022-11-15T22:28:27;13.36;66.07
74811;DHT22;63340;48.404;-4.506;2022-11-15T22:30:54;13.40;66.23
74811;DHT22;63340;48.404;-4.506;2022-11-15T22:33:25;13.43;66.29
74811;DHT22;63340;48.404;-4.506;2022-11-15T22:35:51;13.51;66.27
74811;DHT22;63340;48.404;-4.506;2022-11-15T22:38:16;13.48;66.56
74811;DHT22;63340;48.404;-4.506;2022-11-15T22:40:42;13.41;67.09
74811;DHT22;63340;48.404;-4.506;2022-11-15T22:43:08;13.37;67.44
74811;DHT22;63340;48.404;-4.506;2022-11-15T22:45:36;13.33;68.29
74811;DHT22;63340;48.404;-4.506;2022-11-15T22:48:01;13.33;68.48
74811;DHT22;63340;48.404;-4.506;2022-11-15T22:50:27;13.39;68.72
74811;DHT22;63340;48.404;-4.506;2022-11-15T22:52:52;13.39;68.93
74811;DHT22;63340;48.404;-4.506;2022-11-15T22:55:17;13.39;69.68
74811;DHT22;63340;48.404;-4.506;2022-11-15T22:57:45;13.36;70.05
74811;DHT22;63340;48.404;-4.506;2022-11-15T23:00:13;13.40;69.85
74811;DHT22;63340;48.404;-4.506;2022-11-15T23:02:40;13.33;69.24
74811;DHT22;63340;48.404;-4.506;2022-11-15T23:05:05;13.28;69.07
74811;DHT22;63340;48.404;-4.506;2022-11-15T23:07:31;13.22;68.83
74811;DHT22;63340;48.404;-4.506;2022-11-15T23:09:58;13.24;68.87
74811;DHT22;63340;48.404;-4.506;2022-11-15T23:12:44;13.24;68.81
74811;DHT22;63340;48.404;-4.506;2022-11-15T23:15:28;13.27;68.82
74811;DHT22;63340;48.404;-4.506;2022-11-15T23:18:13;13.26;68.84
74811;DHT22;63340;48.404;-4.506;2022-11-15T23:20:39;13.24;68.96
74811;DHT22;63340;48.404;-4.506;2022-11-15T23:23:05;13.28;68.97
74811;DHT22;63340;48.404;-4.506;2022-11-15T23:25:30;13.27;69.39
74811;DHT22;63340;48.404;-4.506;2022-11-15T23:27:55;13.32;69.64
74811;DHT22;63340;48.404;-4.506;2022-11-15T23:30:21;13.34;70.00
74811;DHT22;63340;48.404;-4.506;2022-11-15T23:33:05;13.37;70.48
74811;DHT22;63340;48.404;-4.506;2022-11-15T23:35:53;13.39;69.57
74811;DHT22;63340;48.404;-4.506;2022-11-15T23:38:19;13.37;68.20
74811;DHT22;63340;48.404;-4.506;2022-11-15T23:40:51;13.27;67.20
74811;DHT22;63340;48.404;-4.506;2022-11-15T23:43:17;13.34;66.98
74811;DHT22;63340;48.404;-4.506;2022-11-15T23:45:43;13.39;66.79
74811;DHT22;63340;48.404;-4.506;2022-11-15T23:48:09;13.36;66.41
74811;DHT22;63340;48.404;-4.506;2022-11-15T23:50:35;13.34;66.85
74811;DHT22;63340;48.404;-4.506;2022-11-15T23:53:00;13.43;67.37
74811;DHT22;63340;48.404;-4.506;2022-11-15T23:55:26;13.46;68.04
74811;DHT22;63340;48.404;-4.506;2022-11-15T23:57:51;13.47;69.14
